createdAt,value
2023-02-23T00:02:50.837Z,75.01
2023-02-23T00:07:53.223Z,75.36
2023-02-23T00:12:55.154Z,74.73
2023-02-23T00:17:58.267Z,75.90
2023-02-23T00:23:00.287Z,76.07
2023-02-23T00:28:02.272Z,75.89
2023-02-23T00:33:04.640Z,75.28
2023-02-23T00:38:06.638Z,75.73
2023-02-23T00:43:08.692Z,75.40
2023-02-23T00:48:11.050Z,74.86
2023-02-23T00:53:13.075Z,75.35
2023-02-23T00:58:15.071Z,75.89
2023-02-23T01:03:17.025Z,76.22
2023-02-23T01:08:19.395Z,76.09
2023-02-23T01:13:22.862Z,75.70
2023-02-23T01:18:24.911Z,75.82
2023-02-23T01:23:26.999Z,75.96
2023-02-23T01:28:29.012Z,75.38
2023-02-23T01:33:31.476Z,75.73
2023-02-23T01:38:33.493Z,75.85
2023-02-23T01:43:37.368Z,76.12
2023-02-23T01:48:40.804Z,76.19
2023-02-23T01:53:47.287Z,76.21
2023-02-23T01:58:54.992Z,75.69
2023-02-23T02:04:00.596Z,75.69
2023-02-23T02:09:08.167Z,76.29
2023-02-23T02:14:14.344Z,75.74
2023-02-23T02:19:31.507Z,75.67
2023-02-23T02:25:06.943Z,75.84
2023-02-23T02:30:45.915Z,75.97
2023-02-23T02:36:22.113Z,75.75
2023-02-23T02:41:43.033Z,75.77
2023-02-23T02:46:50.295Z,75.75
2023-02-23T02:52:09.056Z,75.82
2023-02-23T02:57:13.345Z,75.35
2023-02-23T03:02:41.966Z,75.69
2023-02-23T03:08:36.515Z,75.83
2023-02-23T03:14:18.281Z,76.31
2023-02-23T03:19:50.321Z,75.37
2023-02-23T03:25:19.516Z,75.45
2023-02-23T03:30:49.560Z,75.20
2023-02-23T03:36:14.734Z,75.19
2023-02-23T03:41:39.516Z,75.81
2023-02-23T03:47:02.319Z,75.45
2023-02-23T03:52:28.889Z,76.47
2023-02-23T03:57:52.506Z,75.88
2023-02-23T04:03:14.791Z,76.07
2023-02-23T04:08:38.495Z,75.54
2023-02-23T04:13:43.708Z,76.01
2023-02-23T04:18:45.765Z,76.43
2023-02-23T04:23:48.104Z,75.69
2023-02-23T04:28:50.054Z,76.28
2023-02-23T04:33:52.016Z,76.19
2023-02-23T04:38:54.070Z,75.57
2023-02-23T04:43:56.006Z,76.11
2023-02-23T04:48:58.054Z,76.03
2023-02-23T04:54:00.506Z,75.60
2023-02-23T04:59:02.885Z,76.31
2023-02-23T05:04:05.053Z,75.42
2023-02-23T05:09:07.279Z,75.92
2023-02-23T05:14:10.491Z,76.26
2023-02-23T05:19:12.587Z,76.26
2023-02-23T05:24:14.601Z,76.54
2023-02-23T05:29:16.662Z,76.65
2023-02-23T05:34:18.713Z,76.42
2023-02-23T05:39:21.586Z,76.63
2023-02-23T05:44:24.614Z,76.46
2023-02-23T05:49:26.701Z,76.79
2023-02-23T05:54:28.689Z,76.24
2023-02-23T05:59:30.714Z,76.47
2023-02-23T06:04:33.349Z,77.06
2023-02-23T06:09:35.654Z,76.38
2023-02-23T06:14:37.755Z,76.47
2023-02-23T06:19:39.870Z,76.67
2023-02-23T06:24:42.024Z,77.26
2023-02-23T06:29:44.113Z,77.70
2023-02-23T06:34:46.221Z,77.56
2023-02-23T06:39:49.102Z,77.99
2023-02-23T06:44:51.212Z,77.09
2023-02-23T06:49:53.263Z,77.54
2023-02-23T06:54:55.272Z,78.25
2023-02-23T06:59:57.239Z,77.38
2023-02-23T07:04:59.349Z,78.19
2023-02-23T07:10:01.401Z,78.09
2023-02-23T07:15:03.552Z,78.54
2023-02-23T07:20:06.160Z,79.01
2023-02-23T07:25:09.395Z,79.19
2023-02-23T07:30:12.242Z,78.77
2023-02-23T07:35:14.309Z,79.84
2023-02-23T07:40:16.677Z,79.97
2023-02-23T07:45:18.796Z,79.92
2023-02-23T07:50:21.009Z,79.90
2023-02-23T07:55:23.111Z,80.40
2023-02-23T08:00:25.716Z,80.44
2023-02-23T08:05:28.509Z,80.45
2023-02-23T08:10:30.764Z,80.15
2023-02-23T08:15:33.153Z,80.88
2023-02-23T08:20:35.150Z,81.16
2023-02-23T08:25:37.122Z,81.49
2023-02-23T08:30:41.105Z,80.99
2023-02-23T08:35:43.269Z,82.42
2023-02-23T08:40:45.406Z,81.75
2023-02-23T08:45:48.496Z,82.11
2023-02-23T08:50:51.466Z,82.11
2023-02-23T08:56:02.034Z,83.00
2023-02-23T09:01:04.912Z,83.17
2023-02-23T09:06:11.541Z,84.22
2023-02-23T09:11:13.548Z,84.10
2023-02-23T09:16:16.404Z,84.00
2023-02-23T09:21:22.584Z,84.19
2023-02-23T09:26:26.573Z,84.59
2023-02-23T09:31:29.276Z,83.75
2023-02-23T09:36:32.140Z,84.00
2023-02-23T09:41:43.365Z,83.81
2023-02-23T09:47:21.509Z,83.08
2023-02-23T09:52:28.526Z,83.13
2023-02-23T09:57:39.129Z,82.43
2023-02-23T10:03:00.896Z,83.09
2023-02-23T10:08:07.882Z,83.54
2023-02-23T10:13:49.943Z,83.73
2023-02-23T10:18:52.019Z,84.13
2023-02-23T10:24:30.321Z,84.32
2023-02-23T10:29:41.625Z,84.43
2023-02-23T10:34:46.746Z,82.97
2023-02-23T10:39:52.436Z,83.40
2023-02-23T10:44:55.276Z,83.82
2023-02-23T10:49:58.878Z,83.80
2023-02-23T10:55:08.256Z,83.44
2023-02-23T11:00:33.259Z,82.79
2023-02-23T11:05:47.731Z,80.57
2023-02-23T11:11:05.535Z,79.98
2023-02-23T11:16:14.686Z,78.97
2023-02-23T11:21:30.590Z,78.10
2023-02-23T11:26:42.707Z,78.13
2023-02-23T11:31:52.907Z,78.74
2023-02-23T11:37:01.770Z,78.80
2023-02-23T11:42:18.178Z,77.75
2023-02-23T11:47:23.374Z,78.31
2023-02-23T11:52:28.289Z,79.07
2023-02-23T11:57:33.925Z,78.77
2023-02-23T12:02:50.298Z,78.69
2023-02-23T12:08:15.184Z,78.37
2023-02-23T12:13:36.878Z,77.93
2023-02-23T12:19:08.603Z,78.02
2023-02-23T12:24:37.469Z,77.67
2023-02-23T12:29:55.592Z,77.81
2023-02-23T12:35:04.092Z,77.35
2023-02-23T12:40:38.446Z,77.37
2023-02-23T12:45:53.160Z,77.34
2023-02-23T12:50:58.740Z,77.62
2023-02-23T12:56:19.675Z,77.39
2023-02-23T13:01:32.118Z,77.13
2023-02-23T13:06:39.400Z,77.30
2023-02-23T13:11:59.467Z,76.26
2023-02-23T13:17:31.665Z,77.33
2023-02-23T13:22:44.284Z,77.03
2023-02-23T13:27:52.227Z,76.75
2023-02-23T13:32:55.811Z,76.96
2023-02-23T13:38:30.503Z,76.97
2023-02-23T13:43:47.769Z,76.88
2023-02-23T13:49:41.961Z,75.94
2023-02-23T13:54:57.671Z,76.00
2023-02-23T14:00:00.463Z,76.51
2023-02-23T14:05:25.126Z,76.82
2023-02-23T14:10:38.958Z,76.57
2023-02-23T14:15:50.147Z,76.55
2023-02-23T14:20:58.321Z,76.69
2023-02-23T14:26:30.539Z,76.57
2023-02-23T14:31:34.454Z,76.54
2023-02-23T14:36:44.918Z,76.58
2023-02-23T14:41:56.550Z,76.21
2023-02-23T14:47:09.961Z,76.17
2023-02-23T14:52:24.917Z,75.95
2023-02-23T14:57:27.145Z,75.52
2023-02-23T15:02:31.390Z,75.53
2023-02-23T15:07:40.724Z,74.38
2023-02-23T15:12:43.768Z,74.75
2023-02-23T15:17:48.883Z,74.68
2023-02-23T15:22:55.527Z,75.00
2023-02-23T15:27:58.061Z,74.92
2023-02-23T15:33:01.005Z,74.29
2023-02-23T15:38:13.973Z,74.42
2023-02-23T15:43:20.557Z,74.15
2023-02-23T15:48:29.370Z,74.59
2023-02-23T15:53:41.915Z,74.13
2023-02-23T15:58:56.548Z,74.16
2023-02-23T16:04:14.953Z,74.35
2023-02-23T16:09:24.467Z,74.31
2023-02-23T16:14:33.027Z,74.23
2023-02-23T16:19:41.958Z,74.37
2023-02-23T16:24:44.840Z,74.64
2023-02-23T16:29:47.635Z,74.79
2023-02-23T16:35:02.172Z,74.63
2023-02-23T16:40:05.532Z,74.57
2023-02-23T16:45:13.853Z,74.62
2023-02-23T16:50:25.385Z,74.47
2023-02-23T16:55:29.700Z,74.57
2023-02-23T17:00:34.215Z,74.78
2023-02-23T17:05:37.082Z,74.79
2023-02-23T17:10:41.828Z,74.88
2023-02-23T17:15:48.687Z,75.00
2023-02-23T17:20:53.389Z,75.34
2023-02-23T17:26:02.908Z,74.87
2023-02-23T17:31:08.476Z,74.83
2023-02-23T17:36:16.301Z,74.98
2023-02-23T17:41:21.372Z,74.75
2023-02-23T17:46:26.978Z,75.32
2023-02-23T17:51:33.366Z,75.33
2023-02-23T17:56:38.442Z,75.54
2023-02-23T18:01:41.627Z,74.73
2023-02-23T18:06:47.606Z,75.25
2023-02-23T18:11:50.788Z,75.12
2023-02-23T18:16:54.456Z,75.62
2023-02-23T18:21:58.506Z,75.18
2023-02-23T18:27:07.487Z,75.31
2023-02-23T18:32:15.016Z,74.78
2023-02-23T18:37:26.162Z,75.49
2023-02-23T18:42:32.586Z,75.81
2023-02-23T18:47:36.047Z,75.79
2023-02-23T18:52:41.503Z,75.88
2023-02-23T18:57:46.208Z,75.42
2023-02-23T19:02:49.905Z,75.83
2023-02-23T19:07:56.314Z,75.76
2023-02-23T19:13:01.085Z,76.51
2023-02-23T19:18:06.995Z,76.01
2023-02-23T19:23:13.801Z,75.88
2023-02-23T19:28:18.806Z,75.96
2023-02-23T19:33:23.769Z,76.14
2023-02-23T19:38:31.886Z,76.28
2023-02-23T19:43:35.378Z,76.13
2023-02-23T19:48:41.038Z,75.79
2023-02-23T19:53:44.922Z,76.44
2023-02-23T19:58:50.329Z,76.67
2023-02-23T20:03:58.971Z,76.83
2023-02-23T20:09:05.820Z,76.49
2023-02-23T20:14:10.815Z,76.63
2023-02-23T20:19:15.853Z,76.77
2023-02-23T20:24:21.841Z,76.94
2023-02-23T20:29:36.959Z,76.58
2023-02-23T20:34:40.385Z,76.54
2023-02-23T20:39:44.036Z,76.50
2023-02-23T20:44:48.983Z,77.07
2023-02-23T20:49:53.776Z,77.07
2023-02-23T20:54:56.601Z,77.20
2023-02-23T20:59:59.757Z,77.39
2023-02-23T21:05:03.268Z,77.69
2023-02-23T21:10:08.167Z,77.14
2023-02-23T21:15:15.774Z,77.24
2023-02-23T21:20:20.841Z,77.68
2023-02-23T21:25:28.149Z,77.62
2023-02-23T21:30:31.533Z,77.24
2023-02-23T21:35:36.440Z,77.17
2023-02-23T21:40:42.595Z,77.44
2023-02-23T21:45:48.032Z,77.63
2023-02-23T21:50:50.591Z,77.79
2023-02-23T21:55:52.989Z,77.63
2023-02-23T22:00:55.084Z,78.10
2023-02-23T22:06:01.875Z,78.00
2023-02-23T22:11:09.172Z,77.54
2023-02-23T22:16:12.022Z,77.82
2023-02-23T22:21:14.306Z,78.03
2023-02-23T22:26:18.125Z,78.56
2023-02-23T22:31:20.559Z,78.08
2023-02-23T22:36:23.172Z,78.28
2023-02-23T22:41:25.188Z,78.58
2023-02-23T22:46:27.272Z,78.38
2023-02-23T22:51:29.414Z,77.94
2023-02-23T22:56:31.703Z,78.52
2023-02-23T23:01:34.609Z,78.69
2023-02-23T23:06:38.193Z,78.40
2023-02-23T23:11:44.734Z,78.44
2023-02-23T23:16:53.480Z,78.57
2023-02-23T23:21:56.231Z,78.10
2023-02-23T23:27:01.504Z,78.79
2023-02-23T23:32:07.085Z,78.09
2023-02-23T23:37:09.236Z,78.42
2023-02-23T23:42:12.351Z,78.72
2023-02-23T23:47:15.396Z,78.78
2023-02-23T23:52:18.120Z,78.37
2023-02-23T23:57:20.159Z,78.43
